sensor_id;sensor_type;location;lat;lon;timestamp;temperature;humidity
16114;DHT22;8161;-33.910;151.156;2023-04-24T00:02:27;24.70;99.90
16114;DHT22;8161;-33.910;151.156;2023-04-24T00:04:58;24.70;99.90
16114;DHT22;8161;-33.910;151.156;2023-04-24T00:07:29;24.90;99.90
16114;DHT22;8161;-33.910;151.156;2023-04-24T00:09:56;24.90;99.90
16114;DHT22;8161;-33.910;151.156;2023-04-24T00:12:25;24.60;99.90
16114;DHT22;8161;-33.910;151.156;2023-04-24T00:14:53;24.90;99.90
16114;DHT22;8161;-33.910;151.156;2023-04-24T00:17:23;24.30;99.90
16114;DHT22;8161;-33.910;151.156;2023-04-24T00:19:53;24.40;99.90
16114;DHT22;8161;-33.910;151.156;2023-04-24T00:22:27;24.70;99.90
16114;DHT22;8161;-33.910;151.156;2023-04-24T00:24:55;24.60;99.90
16114;DHT22;8161;-33.910;151.156;2023-04-24T00:27:22;24.70;99.90
16114;DHT22;8161;-33.910;151.156;2023-04-24T00:29:50;24.60;99.90
16114;DHT22;8161;-33.910;151.156;2023-04-24T00:37:12;24.60;99.90
16114;DHT22;8161;-33.910;151.156;2023-04-24T00:39:39;24.60;99.90
16114;DHT22;8161;-33.910;151.156;2023-04-24T00:44:34;24.80;99.90
16114;DHT22;8161;-33.910;151.156;2023-04-24T00:47:01;25.00;99.90
16114;DHT22;8161;-33.910;151.156;2023-04-24T00:49:29;25.40;99.90
16114;DHT22;8161;-33.910;151.156;2023-04-24T00:54:25;25.70;99.90
16114;DHT22;8161;-33.910;151.156;2023-04-24T00:56:53;25.90;99.90
16114;DHT22;8161;-33.910;151.156;2023-04-24T00:59:20;25.70;99.90
16114;DHT22;8161;-33.910;151.156;2023-04-24T01:01:47;25.60;99.90
16114;DHT22;8161;-33.910;151.156;2023-04-24T01:04:15;25.30;99.90
16114;DHT22;8161;-33.910;151.156;2023-04-24T01:06:44;25.00;99.90
16114;DHT22;8161;-33.910;151.156;2023-04-24T01:09:13;24.80;99.90
16114;DHT22;8161;-33.910;151.156;2023-04-24T01:11:42;25.40;99.90
16114;DHT22;8161;-33.910;151.156;2023-04-24T01:14:12;24.80;99.90
16114;DHT22;8161;-33.910;151.156;2023-04-24T01:16:42;24.80;99.90
16114;DHT22;8161;-33.910;151.156;2023-04-24T01:19:10;24.90;99.90
16114;DHT22;8161;-33.910;151.156;2023-04-24T01:21:39;24.80;99.90
16114;DHT22;8161;-33.910;151.156;2023-04-24T01:24:10;25.10;99.90
16114;DHT22;8161;-33.910;151.156;2023-04-24T01:26:40;25.00;99.90
16114;DHT22;8161;-33.910;151.156;2023-04-24T01:34:02;25.60;99.90
16114;DHT22;8161;-33.910;151.156;2023-04-24T01:36:30;25.70;99.90
16114;DHT22;8161;-33.910;151.156;2023-04-24T01:38:58;25.80;99.90
16114;DHT22;8161;-33.910;151.156;2023-04-24T01:41:28;26.00;99.90
16114;DHT22;8161;-33.910;151.156;2023-04-24T01:43:55;26.10;99.90
16114;DHT22;8161;-33.910;151.156;2023-04-24T01:46:24;26.10;99.90
16114;DHT22;8161;-33.910;151.156;2023-04-24T01:48:52;26.20;99.90
16114;DHT22;8161;-33.910;151.156;2023-04-24T01:56:14;25.90;99.90
16114;DHT22;8161;-33.910;151.156;2023-04-24T01:58:42;25.60;99.90
16114;DHT22;8161;-33.910;151.156;2023-04-24T02:01:14;25.20;99.90
16114;DHT22;8161;-33.910;151.156;2023-04-24T02:03:41;25.00;99.90
16114;DHT22;8161;-33.910;151.156;2023-04-24T02:06:12;24.80;99.90
16114;DHT22;8161;-33.910;151.156;2023-04-24T02:08:39;24.50;99.90
16114;DHT22;8161;-33.910;151.156;2023-04-24T02:13:33;24.70;99.90
16114;DHT22;8161;-33.910;151.156;2023-04-24T02:20:55;24.40;99.90
16114;DHT22;8161;-33.910;151.156;2023-04-24T02:23:22;24.20;99.90
16114;DHT22;8161;-33.910;151.156;2023-04-24T02:25:49;24.10;99.90
16114;DHT22;8161;-33.910;151.156;2023-04-24T02:28:20;24.20;99.90
16114;DHT22;8161;-33.910;151.156;2023-04-24T02:30:47;24.20;99.90
16114;DHT22;8161;-33.910;151.156;2023-04-24T02:35:41;23.90;99.90
16114;DHT22;8161;-33.910;151.156;2023-04-24T02:38:12;24.10;99.90
16114;DHT22;8161;-33.910;151.156;2023-04-24T02:40:39;24.20;99.90
16114;DHT22;8161;-33.910;151.156;2023-04-24T02:48:01;23.90;99.90
16114;DHT22;8161;-33.910;151.156;2023-04-24T02:50:28;23.80;99.90
16114;DHT22;8161;-33.910;151.156;2023-04-24T02:52:55;24.10;99.90
16114;DHT22;8161;-33.910;151.156;2023-04-24T02:55:25;24.20;99.90
16114;DHT22;8161;-33.910;151.156;2023-04-24T02:57:53;23.70;99.90
16114;DHT22;8161;-33.910;151.156;2023-04-24T03:00:20;23.60;99.90
16114;DHT22;8161;-33.910;151.156;2023-04-24T03:02:47;23.60;99.90
16114;DHT22;8161;-33.910;151.156;2023-04-24T03:05:16;23.60;99.90
16114;DHT22;8161;-33.910;151.156;2023-04-24T03:07:43;23.90;99.90
16114;DHT22;8161;-33.910;151.156;2023-04-24T03:10:11;24.20;99.90
16114;DHT22;8161;-33.910;151.156;2023-04-24T03:17:33;24.10;99.90
16114;DHT22;8161;-33.910;151.156;2023-04-24T03:20:02;23.90;99.90
16114;DHT22;8161;-33.910;151.156;2023-04-24T03:22:31;24.30;99.90
16114;DHT22;8161;-33.910;151.156;2023-04-24T03:27:27;24.30;99.90
16114;DHT22;8161;-33.910;151.156;2023-04-24T03:29:54;24.70;99.90
16114;DHT22;8161;-33.910;151.156;2023-04-24T03:32:22;24.60;99.90
16114;DHT22;8161;-33.910;151.156;2023-04-24T03:34:50;24.60;99.90
16114;DHT22;8161;-33.910;151.156;2023-04-24T03:37:20;24.80;99.90
16114;DHT22;8161;-33.910;151.156;2023-04-24T03:39:47;24.70;99.90
16114;DHT22;8161;-33.910;151.156;2023-04-24T03:42:14;25.00;99.90
16114;DHT22;8161;-33.910;151.156;2023-04-24T03:44:42;24.50;99.90
16114;DHT22;8161;-33.910;151.156;2023-04-24T03:47:09;24.20;99.90
16114;DHT22;8161;-33.910;151.156;2023-04-24T03:49:36;24.40;99.90
16114;DHT22;8161;-33.910;151.156;2023-04-24T03:52:06;24.10;99.90
16114;DHT22;8161;-33.910;151.156;2023-04-24T03:54:33;24.10;99.90
16114;DHT22;8161;-33.910;151.156;2023-04-24T03:57:00;24.40;99.90
16114;DHT22;8161;-33.910;151.156;2023-04-24T03:59:28;23.90;99.90
16114;DHT22;8161;-33.910;151.156;2023-04-24T04:01:55;24.00;99.90
16114;DHT22;8161;-33.910;151.156;2023-04-24T04:04:22;24.00;99.90
16114;DHT22;8161;-33.910;151.156;2023-04-24T04:06:49;23.60;99.90
16114;DHT22;8161;-33.910;151.156;2023-04-24T04:09:17;24.10;99.90
16114;DHT22;8161;-33.910;151.156;2023-04-24T04:19:06;23.90;99.90
16114;DHT22;8161;-33.910;151.156;2023-04-24T04:21:33;24.20;99.90
16114;DHT22;8161;-33.910;151.156;2023-04-24T04:24:01;24.10;99.90
16114;DHT22;8161;-33.910;151.156;2023-04-24T04:28:58;23.80;99.90
16114;DHT22;8161;-33.910;151.156;2023-04-24T04:31:27;23.70;99.90
16114;DHT22;8161;-33.910;151.156;2023-04-24T04:33:54;23.60;99.90
16114;DHT22;8161;-33.910;151.156;2023-04-24T04:36:21;23.90;99.90
16114;DHT22;8161;-33.910;151.156;2023-04-24T04:38:50;23.80;99.90
16114;DHT22;8161;-33.910;151.156;2023-04-24T04:41:17;24.00;99.90
16114;DHT22;8161;-33.910;151.156;2023-04-24T04:43:44;24.00;99.90
16114;DHT22;8161;-33.910;151.156;2023-04-24T04:46:12;24.50;99.90
16114;DHT22;8161;-33.910;151.156;2023-04-24T04:51:07;24.60;99.90
16114;DHT22;8161;-33.910;151.156;2023-04-24T04:53:34;24.60;99.90
16114;DHT22;8161;-33.910;151.156;2023-04-24T04:56:01;24.50;99.90
16114;DHT22;8161;-33.910;151.156;2023-04-24T04:58:29;24.50;99.90
16114;DHT22;8161;-33.910;151.156;2023-04-24T05:03:24;24.30;99.90
16114;DHT22;8161;-33.910;151.156;2023-04-24T05:05:51;24.40;99.90
16114;DHT22;8161;-33.910;151.156;2023-04-24T05:08:19;24.50;99.90
16114;DHT22;8161;-33.910;151.156;2023-04-24T05:10:46;24.30;99.90
16114;DHT22;8161;-33.910;151.156;2023-04-24T05:13:13;24.50;99.90
16114;DHT22;8161;-33.910;151.156;2023-04-24T05:15:40;24.30;99.90
16114;DHT22;8161;-33.910;151.156;2023-04-24T05:18:07;24.40;99.90
16114;DHT22;8161;-33.910;151.156;2023-04-24T05:25:29;24.20;99.90
16114;DHT22;8161;-33.910;151.156;2023-04-24T05:28:01;24.10;99.90
16114;DHT22;8161;-33.910;151.156;2023-04-24T05:30:29;24.00;99.90
16114;DHT22;8161;-33.910;151.156;2023-04-24T05:32:56;24.00;99.90
16114;DHT22;8161;-33.910;151.156;2023-04-24T05:37:51;23.70;99.90
16114;DHT22;8161;-33.910;151.156;2023-04-24T05:40:18;23.50;99.90
16114;DHT22;8161;-33.910;151.156;2023-04-24T05:42:45;23.50;99.90
16114;DHT22;8161;-33.910;151.156;2023-04-24T05:47:43;23.30;99.90
16114;DHT22;8161;-33.910;151.156;2023-04-24T05:52:38;23.00;99.90
16114;DHT22;8161;-33.910;151.156;2023-04-24T05:55:05;23.30;99.90
16114;DHT22;8161;-33.910;151.156;2023-04-24T05:57:34;23.00;99.90
16114;DHT22;8161;-33.910;151.156;2023-04-24T06:00:01;22.80;99.90
16114;DHT22;8161;-33.910;151.156;2023-04-24T06:02:28;22.90;99.90
16114;DHT22;8161;-33.910;151.156;2023-04-24T06:04:59;22.80;99.90
16114;DHT22;8161;-33.910;151.156;2023-04-24T06:07:26;22.70;99.90
16114;DHT22;8161;-33.910;151.156;2023-04-24T06:09:53;22.60;99.90
16114;DHT22;8161;-33.910;151.156;2023-04-24T06:12:21;22.80;99.90
16114;DHT22;8161;-33.910;151.156;2023-04-24T06:14:48;22.60;99.90
16114;DHT22;8161;-33.910;151.156;2023-04-24T06:19:44;22.40;99.90
16114;DHT22;8161;-33.910;151.156;2023-04-24T06:22:11;22.30;99.90
16114;DHT22;8161;-33.910;151.156;2023-04-24T06:24:40;21.70;99.90
16114;DHT22;8161;-33.910;151.156;2023-04-24T06:29:36;21.70;99.90
16114;DHT22;8161;-33.910;151.156;2023-04-24T06:32:03;21.00;99.90
16114;DHT22;8161;-33.910;151.156;2023-04-24T06:34:30;20.90;99.90
16114;DHT22;8161;-33.910;151.156;2023-04-24T06:36:59;21.10;99.90
16114;DHT22;8161;-33.910;151.156;2023-04-24T06:39:26;20.90;99.90
16114;DHT22;8161;-33.910;151.156;2023-04-24T06:44:21;21.00;99.90
16114;DHT22;8161;-33.910;151.156;2023-04-24T06:46:48;21.10;99.90
16114;DHT22;8161;-33.910;151.156;2023-04-24T06:49:15;20.90;99.90
16114;DHT22;8161;-33.910;151.156;2023-04-24T06:51:43;20.60;99.90
16114;DHT22;8161;-33.910;151.156;2023-04-24T06:54:10;20.90;99.90
16114;DHT22;8161;-33.910;151.156;2023-04-24T06:56:37;20.60;99.90
16114;DHT22;8161;-33.910;151.156;2023-04-24T06:59:05;20.90;99.90
16114;DHT22;8161;-33.910;151.156;2023-04-24T07:01:32;20.10;99.90
16114;DHT22;8161;-33.910;151.156;2023-04-24T07:03:59;20.40;99.90
16114;DHT22;8161;-33.910;151.156;2023-04-24T07:06:26;20.40;99.90
16114;DHT22;8161;-33.910;151.156;2023-04-24T07:08:54;20.40;99.90
16114;DHT22;8161;-33.910;151.156;2023-04-24T07:11:22;19.90;99.90
16114;DHT22;8161;-33.910;151.156;2023-04-24T07:13:49;20.20;99.90
16114;DHT22;8161;-33.910;151.156;2023-04-24T07:18:43;19.90;99.90
16114;DHT22;8161;-33.910;151.156;2023-04-24T07:21:11;20.10;99.90
16114;DHT22;8161;-33.910;151.156;2023-04-24T07:23:38;20.00;99.90
16114;DHT22;8161;-33.910;151.156;2023-04-24T07:26:07;19.90;99.90
16114;DHT22;8161;-33.910;151.156;2023-04-24T07:31:02;19.80;99.90
16114;DHT22;8161;-33.910;151.156;2023-04-24T07:33:29;20.30;99.90
16114;DHT22;8161;-33.910;151.156;2023-04-24T07:35:56;19.90;99.90
16114;DHT22;8161;-33.910;151.156;2023-04-24T07:38:24;20.30;99.90
16114;DHT22;8161;-33.910;151.156;2023-04-24T07:40:52;20.40;99.90
16114;DHT22;8161;-33.910;151.156;2023-04-24T07:43:20;20.60;99.90
16114;DHT22;8161;-33.910;151.156;2023-04-24T07:45:48;20.00;99.90
16114;DHT22;8161;-33.910;151.156;2023-04-24T07:48:15;20.10;99.90
16114;DHT22;8161;-33.910;151.156;2023-04-24T07:50:44;20.00;99.90
16114;DHT22;8161;-33.910;151.156;2023-04-24T07:53:12;19.80;99.90
16114;DHT22;8161;-33.910;151.156;2023-04-24T07:55:39;19.90;99.90
16114;DHT22;8161;-33.910;151.156;2023-04-24T07:58:06;20.30;99.90
16114;DHT22;8161;-33.910;151.156;2023-04-24T08:00:33;20.00;99.90
16114;DHT22;8161;-33.910;151.156;2023-04-24T08:05:28;20.10;99.90
16114;DHT22;8161;-33.910;151.156;2023-04-24T08:07:55;19.90;99.90
16114;DHT22;8161;-33.910;151.156;2023-04-24T08:10:23;19.90;99.90
16114;DHT22;8161;-33.910;151.156;2023-04-24T08:15:17;19.90;99.90
16114;DHT22;8161;-33.910;151.156;2023-04-24T08:17:48;20.00;99.90
16114;DHT22;8161;-33.910;151.156;2023-04-24T08:20:16;19.80;99.90
16114;DHT22;8161;-33.910;151.156;2023-04-24T08:25:15;20.30;99.90
16114;DHT22;8161;-33.910;151.156;2023-04-24T08:27:42;19.80;99.90
16114;DHT22;8161;-33.910;151.156;2023-04-24T08:35:10;19.60;99.90
16114;DHT22;8161;-33.910;151.156;2023-04-24T08:37:38;19.60;99.90
16114;DHT22;8161;-33.910;151.156;2023-04-24T08:40:14;20.20;99.90
16114;DHT22;8161;-33.910;151.156;2023-04-24T08:42:42;19.80;99.90
16114;DHT22;8161;-33.910;151.156;2023-04-24T08:45:11;20.30;99.90
16114;DHT22;8161;-33.910;151.156;2023-04-24T08:47:40;20.30;99.90
16114;DHT22;8161;-33.910;151.156;2023-04-24T08:50:10;20.20;99.90
16114;DHT22;8161;-33.910;151.156;2023-04-24T08:52:38;19.90;99.90
16114;DHT22;8161;-33.910;151.156;2023-04-24T08:57:33;20.30;99.90
16114;DHT22;8161;-33.910;151.156;2023-04-24T09:00:03;20.30;99.90
16114;DHT22;8161;-33.910;151.156;2023-04-24T09:05:01;20.00;99.90
16114;DHT22;8161;-33.910;151.156;2023-04-24T09:07:30;19.60;99.90
16114;DHT22;8161;-33.910;151.156;2023-04-24T09:10:02;20.20;99.90
16114;DHT22;8161;-33.910;151.156;2023-04-24T09:12:29;20.20;99.90
16114;DHT22;8161;-33.910;151.156;2023-04-24T09:14:57;19.70;99.90
16114;DHT22;8161;-33.910;151.156;2023-04-24T09:17:25;19.50;99.90
16114;DHT22;8161;-33.910;151.156;2023-04-24T09:19:54;19.80;99.90
16114;DHT22;8161;-33.910;151.156;2023-04-24T09:22:22;20.30;99.90
16114;DHT22;8161;-33.910;151.156;2023-04-24T09:25:03;19.70;99.90
16114;DHT22;8161;-33.910;151.156;2023-04-24T09:27:32;20.00;99.90
16114;DHT22;8161;-33.910;151.156;2023-04-24T09:30:00;20.30;99.90
16114;DHT22;8161;-33.910;151.156;2023-04-24T09:32:28;19.70;99.90
16114;DHT22;8161;-33.910;151.156;2023-04-24T09:37:44;20.00;99.90
16114;DHT22;8161;-33.910;151.156;2023-04-24T09:40:19;20.10;99.90
16114;DHT22;8161;-33.910;151.156;2023-04-24T09:42:55;20.30;99.90
16114;DHT22;8161;-33.910;151.156;2023-04-24T09:45:34;20.30;99.90
16114;DHT22;8161;-33.910;151.156;2023-04-24T09:48:03;20.00;99.90
16114;DHT22;8161;-33.910;151.156;2023-04-24T09:50:33;20.10;99.90
16114;DHT22;8161;-33.910;151.156;2023-04-24T09:55:32;19.60;99.90
16114;DHT22;8161;-33.910;151.156;2023-04-24T09:58:00;20.30;99.90
16114;DHT22;8161;-33.910;151.156;2023-04-24T10:00:32;20.30;99.90
16114;DHT22;8161;-33.910;151.156;2023-04-24T10:05:34;20.20;99.90
16114;DHT22;8161;-33.910;151.156;2023-04-24T10:10:38;20.10;99.90
16114;DHT22;8161;-33.910;151.156;2023-04-24T10:13:08;19.90;99.90
16114;DHT22;8161;-33.910;151.156;2023-04-24T10:15:37;19.60;99.90
16114;DHT22;8161;-33.910;151.156;2023-04-24T10:18:06;20.30;99.90
16114;DHT22;8161;-33.910;151.156;2023-04-24T10:20:35;20.10;99.90
16114;DHT22;8161;-33.910;151.156;2023-04-24T10:23:02;19.50;99.90
16114;DHT22;8161;-33.910;151.156;2023-04-24T10:25:32;19.60;99.90
16114;DHT22;8161;-33.910;151.156;2023-04-24T10:28:01;19.50;99.90
16114;DHT22;8161;-33.910;151.156;2023-04-24T10:30:33;20.20;99.90
16114;DHT22;8161;-33.910;151.156;2023-04-24T10:33:05;19.70;99.90
16114;DHT22;8161;-33.910;151.156;2023-04-24T10:35:36;19.70;99.90
16114;DHT22;8161;-33.910;151.156;2023-04-24T10:38:09;19.40;99.90
16114;DHT22;8161;-33.910;151.156;2023-04-24T10:43:06;20.10;99.90
16114;DHT22;8161;-33.910;151.156;2023-04-24T10:45:38;19.80;99.90
16114;DHT22;8161;-33.910;151.156;2023-04-24T10:48:08;20.10;99.90
16114;DHT22;8161;-33.910;151.156;2023-04-24T10:50:44;19.50;99.90
16114;DHT22;8161;-33.910;151.156;2023-04-24T10:53:17;19.80;99.90
16114;DHT22;8161;-33.910;151.156;2023-04-24T10:55:59;19.90;99.90
16114;DHT22;8161;-33.910;151.156;2023-04-24T10:58:43;20.10;99.90
16114;DHT22;8161;-33.910;151.156;2023-04-24T11:01:30;19.90;99.90
16114;DHT22;8161;-33.910;151.156;2023-04-24T11:04:02;19.50;99.90
16114;DHT22;8161;-33.910;151.156;2023-04-24T11:06:36;19.70;99.90
16114;DHT22;8161;-33.910;151.156;2023-04-24T11:11:45;20.20;99.90
16114;DHT22;8161;-33.910;151.156;2023-04-24T11:14:16;20.30;99.90
16114;DHT22;8161;-33.910;151.156;2023-04-24T11:19:23;20.00;99.90
16114;DHT22;8161;-33.910;151.156;2023-04-24T11:21:59;19.90;99.90
16114;DHT22;8161;-33.910;151.156;2023-04-24T11:24:32;20.00;99.90
16114;DHT22;8161;-33.910;151.156;2023-04-24T11:27:06;19.80;99.90
16114;DHT22;8161;-33.910;151.156;2023-04-24T11:32:35;19.80;99.90
16114;DHT22;8161;-33.910;151.156;2023-04-24T11:42:41;19.50;99.90
16114;DHT22;8161;-33.910;151.156;2023-04-24T11:45:15;19.30;99.90
16114;DHT22;8161;-33.910;151.156;2023-04-24T11:47:44;19.20;99.90
16114;DHT22;8161;-33.910;151.156;2023-04-24T11:50:14;19.90;99.90
16114;DHT22;8161;-33.910;151.156;2023-04-24T11:55:30;19.50;99.90
16114;DHT22;8161;-33.910;151.156;2023-04-24T11:57:58;19.70;99.90
16114;DHT22;8161;-33.910;151.156;2023-04-24T12:03:05;19.20;99.90
16114;DHT22;8161;-33.910;151.156;2023-04-24T12:05:33;19.40;99.90
16114;DHT22;8161;-33.910;151.156;2023-04-24T12:08:01;19.40;99.90
16114;DHT22;8161;-33.910;151.156;2023-04-24T12:10:30;19.20;99.90
16114;DHT22;8161;-33.910;151.156;2023-04-24T12:12:58;19.10;99.90
16114;DHT22;8161;-33.910;151.156;2023-04-24T12:15:27;19.10;99.90
16114;DHT22;8161;-33.910;151.156;2023-04-24T12:17:54;19.30;99.90
16114;DHT22;8161;-33.910;151.156;2023-04-24T12:22:59;19.30;99.90
16114;DHT22;8161;-33.910;151.156;2023-04-24T12:25:33;19.00;99.90
16114;DHT22;8161;-33.910;151.156;2023-04-24T12:30:33;18.70;99.90
16114;DHT22;8161;-33.910;151.156;2023-04-24T12:33:01;19.20;99.90
16114;DHT22;8161;-33.910;151.156;2023-04-24T12:35:30;18.80;99.90
16114;DHT22;8161;-33.910;151.156;2023-04-24T12:38:09;19.00;99.90
16114;DHT22;8161;-33.910;151.156;2023-04-24T12:40:37;18.80;99.90
16114;DHT22;8161;-33.910;151.156;2023-04-24T12:43:17;19.00;99.90
16114;DHT22;8161;-33.910;151.156;2023-04-24T12:45:45;19.00;99.90
16114;DHT22;8161;-33.910;151.156;2023-04-24T12:48:13;18.60;99.90
16114;DHT22;8161;-33.910;151.156;2023-04-24T12:50:46;19.10;99.90
16114;DHT22;8161;-33.910;151.156;2023-04-24T12:55:41;18.50;99.90
16114;DHT22;8161;-33.910;151.156;2023-04-24T13:00:36;18.80;99.90
16114;DHT22;8161;-33.910;151.156;2023-04-24T13:03:04;18.40;99.90
16114;DHT22;8161;-33.910;151.156;2023-04-24T13:05:31;19.00;99.90
16114;DHT22;8161;-33.910;151.156;2023-04-24T13:07:58;18.50;99.90
16114;DHT22;8161;-33.910;151.156;2023-04-24T13:10:25;18.60;99.90
16114;DHT22;8161;-33.910;151.156;2023-04-24T13:12:53;18.80;99.90
16114;DHT22;8161;-33.910;151.156;2023-04-24T13:15:20;18.50;99.90
16114;DHT22;8161;-33.910;151.156;2023-04-24T13:17:47;18.80;99.90
16114;DHT22;8161;-33.910;151.156;2023-04-24T13:20:15;18.40;99.90
16114;DHT22;8161;-33.910;151.156;2023-04-24T13:22:42;18.90;99.90
16114;DHT22;8161;-33.910;151.156;2023-04-24T13:25:09;18.90;99.90
16114;DHT22;8161;-33.910;151.156;2023-04-24T13:27:39;18.20;99.90
16114;DHT22;8161;-33.910;151.156;2023-04-24T13:30:07;18.40;99.90
16114;DHT22;8161;-33.910;151.156;2023-04-24T13:32:34;18.70;99.90
16114;DHT22;8161;-33.910;151.156;2023-04-24T13:35:01;18.90;99.90
16114;DHT22;8161;-33.910;151.156;2023-04-24T13:37:29;18.40;99.90
16114;DHT22;8161;-33.910;151.156;2023-04-24T13:39:56;18.80;99.90
16114;DHT22;8161;-33.910;151.156;2023-04-24T13:42:23;18.60;99.90
16114;DHT22;8161;-33.910;151.156;2023-04-24T13:44:50;18.70;99.90
16114;DHT22;8161;-33.910;151.156;2023-04-24T13:47:18;18.80;99.90
16114;DHT22;8161;-33.910;151.156;2023-04-24T13:52:12;18.60;99.90
16114;DHT22;8161;-33.910;151.156;2023-04-24T13:54:40;18.60;99.90
16114;DHT22;8161;-33.910;151.156;2023-04-24T13:57:11;18.40;99.90
16114;DHT22;8161;-33.910;151.156;2023-04-24T13:59:38;18.00;99.90
16114;DHT22;8161;-33.910;151.156;2023-04-24T14:02:06;18.30;99.90
16114;DHT22;8161;-33.910;151.156;2023-04-24T14:04:33;18.40;99.90
16114;DHT22;8161;-33.910;151.156;2023-04-24T14:07:01;18.70;99.90
16114;DHT22;8161;-33.910;151.156;2023-04-24T14:14:22;18.10;99.90
16114;DHT22;8161;-33.910;151.156;2023-04-24T14:16:49;18.50;99.90
16114;DHT22;8161;-33.910;151.156;2023-04-24T14:21:44;18.00;99.90
16114;DHT22;8161;-33.910;151.156;2023-04-24T14:24:11;18.20;99.90
16114;DHT22;8161;-33.910;151.156;2023-04-24T14:26:38;18.30;99.90
16114;DHT22;8161;-33.910;151.156;2023-04-24T14:31:36;18.10;99.90
16114;DHT22;8161;-33.910;151.156;2023-04-24T14:34:06;18.10;99.90
16114;DHT22;8161;-33.910;151.156;2023-04-24T14:36:33;18.10;99.90
16114;DHT22;8161;-33.910;151.156;2023-04-24T14:39:01;18.40;99.90
16114;DHT22;8161;-33.910;151.156;2023-04-24T14:41:33;18.10;99.90
16114;DHT22;8161;-33.910;151.156;2023-04-24T14:44:03;18.60;99.90
16114;DHT22;8161;-33.910;151.156;2023-04-24T14:46:31;18.20;99.90
16114;DHT22;8161;-33.910;151.156;2023-04-24T14:48:58;19.00;99.90
16114;DHT22;8161;-33.910;151.156;2023-04-24T14:51:28;18.40;99.90
16114;DHT22;8161;-33.910;151.156;2023-04-24T14:53:57;18.10;99.90
16114;DHT22;8161;-33.910;151.156;2023-04-24T14:56:25;18.00;99.90
16114;DHT22;8161;-33.910;151.156;2023-04-24T15:01:20;18.00;99.90
16114;DHT22;8161;-33.910;151.156;2023-04-24T15:03:47;18.10;99.90
16114;DHT22;8161;-33.910;151.156;2023-04-24T15:06:14;18.20;99.90
16114;DHT22;8161;-33.910;151.156;2023-04-24T15:13:37;18.20;99.90
16114;DHT22;8161;-33.910;151.156;2023-04-24T15:16:05;18.20;99.90
16114;DHT22;8161;-33.910;151.156;2023-04-24T15:18:32;18.30;99.90
16114;DHT22;8161;-33.910;151.156;2023-04-24T15:21:00;18.00;99.90
16114;DHT22;8161;-33.910;151.156;2023-04-24T15:23:27;17.90;99.90
16114;DHT22;8161;-33.910;151.156;2023-04-24T15:25:54;17.80;99.90
16114;DHT22;8161;-33.910;151.156;2023-04-24T15:28:22;17.70;99.90
16114;DHT22;8161;-33.910;151.156;2023-04-24T15:30:49;18.20;99.90
16114;DHT22;8161;-33.910;151.156;2023-04-24T15:33:17;18.20;99.90
16114;DHT22;8161;-33.910;151.156;2023-04-24T15:35:44;18.30;99.90
16114;DHT22;8161;-33.910;151.156;2023-04-24T15:38:11;18.40;99.90
16114;DHT22;8161;-33.910;151.156;2023-04-24T15:40:38;18.40;99.90
16114;DHT22;8161;-33.910;151.156;2023-04-24T15:43:05;17.90;99.90
16114;DHT22;8161;-33.910;151.156;2023-04-24T15:48:01;18.10;99.90
16114;DHT22;8161;-33.910;151.156;2023-04-24T15:50:28;18.60;99.90
16114;DHT22;8161;-33.910;151.156;2023-04-24T15:55:22;17.90;99.90
16114;DHT22;8161;-33.910;151.156;2023-04-24T15:57:49;18.10;99.90
16114;DHT22;8161;-33.910;151.156;2023-04-24T16:00:17;17.90;99.90
16114;DHT22;8161;-33.910;151.156;2023-04-24T16:02:44;18.10;99.90
16114;DHT22;8161;-33.910;151.156;2023-04-24T16:05:11;17.80;99.90
16114;DHT22;8161;-33.910;151.156;2023-04-24T16:07:39;17.80;99.90
16114;DHT22;8161;-33.910;151.156;2023-04-24T16:10:06;17.90;99.90
16114;DHT22;8161;-33.910;151.156;2023-04-24T16:12:34;18.20;99.90
16114;DHT22;8161;-33.910;151.156;2023-04-24T16:15:01;18.10;99.90
16114;DHT22;8161;-33.910;151.156;2023-04-24T16:17:28;18.20;99.90
16114;DHT22;8161;-33.910;151.156;2023-04-24T16:19:56;18.30;99.90
16114;DHT22;8161;-33.910;151.156;2023-04-24T16:22:23;18.40;99.90
16114;DHT22;8161;-33.910;151.156;2023-04-24T16:24:50;18.50;99.90
16114;DHT22;8161;-33.910;151.156;2023-04-24T16:27:17;18.50;99.90
16114;DHT22;8161;-33.910;151.156;2023-04-24T16:29:45;18.40;99.90
16114;DHT22;8161;-33.910;151.156;2023-04-24T16:34:39;17.60;99.90
16114;DHT22;8161;-33.910;151.156;2023-04-24T16:37:09;17.70;99.90
16114;DHT22;8161;-33.910;151.156;2023-04-24T16:42:12;18.20;99.90
16114;DHT22;8161;-33.910;151.156;2023-04-24T16:44:40;17.60;99.90
16114;DHT22;8161;-33.910;151.156;2023-04-24T16:49:43;17.70;99.90
16114;DHT22;8161;-33.910;151.156;2023-04-24T16:54:38;17.80;99.90
16114;DHT22;8161;-33.910;151.156;2023-04-24T16:57:05;17.90;99.90
16114;DHT22;8161;-33.910;151.156;2023-04-24T16:59:36;17.80;99.90
16114;DHT22;8161;-33.910;151.156;2023-04-24T17:02:04;17.50;99.90
16114;DHT22;8161;-33.910;151.156;2023-04-24T17:04:31;18.00;99.90
16114;DHT22;8161;-33.910;151.156;2023-04-24T17:07:01;17.70;99.90
16114;DHT22;8161;-33.910;151.156;2023-04-24T17:09:28;17.60;99.90
16114;DHT22;8161;-33.910;151.156;2023-04-24T17:11:56;17.90;99.90
16114;DHT22;8161;-33.910;151.156;2023-04-24T17:14:23;17.80;99.90
16114;DHT22;8161;-33.910;151.156;2023-04-24T17:16:51;17.80;99.90
16114;DHT22;8161;-33.910;151.156;2023-04-24T17:19:19;17.40;99.90
16114;DHT22;8161;-33.910;151.156;2023-04-24T17:24:13;17.50;99.90
16114;DHT22;8161;-33.910;151.156;2023-04-24T17:26:41;17.90;99.90
16114;DHT22;8161;-33.910;151.156;2023-04-24T17:29:08;17.80;99.90
16114;DHT22;8161;-33.910;151.156;2023-04-24T17:34:02;17.80;99.90
16114;DHT22;8161;-33.910;151.156;2023-04-24T17:36:29;17.30;99.90
16114;DHT22;8161;-33.910;151.156;2023-04-24T17:38:57;17.70;99.90
16114;DHT22;8161;-33.910;151.156;2023-04-24T17:41:24;17.70;99.90
16114;DHT22;8161;-33.910;151.156;2023-04-24T17:43:52;17.80;99.90
16114;DHT22;8161;-33.910;151.156;2023-04-24T17:46:19;17.30;99.90
16114;DHT22;8161;-33.910;151.156;2023-04-24T17:48:46;17.20;99.90
16114;DHT22;8161;-33.910;151.156;2023-04-24T17:53:41;17.90;99.90
16114;DHT22;8161;-33.910;151.156;2023-04-24T17:56:08;17.40;99.90
16114;DHT22;8161;-33.910;151.156;2023-04-24T17:58:35;17.70;99.90
16114;DHT22;8161;-33.910;151.156;2023-04-24T18:05:57;18.00;99.90
16114;DHT22;8161;-33.910;151.156;2023-04-24T18:10:51;17.90;99.90
16114;DHT22;8161;-33.910;151.156;2023-04-24T18:13:18;17.70;99.90
16114;DHT22;8161;-33.910;151.156;2023-04-24T18:15:46;17.60;99.90
16114;DHT22;8161;-33.910;151.156;2023-04-24T18:18:13;17.80;99.90
16114;DHT22;8161;-33.910;151.156;2023-04-24T18:20:44;17.60;99.90
16114;DHT22;8161;-33.910;151.156;2023-04-24T18:23:11;17.80;99.90